Terminal Aerodrome Forecast
Issued by NWS Charleston, WV

Current Version | Previous Version | Graphics & Text | Print | Product List | Glossary On
Versions: 1 2 3 4 5 6 7 8 9 10 11 12 13 14 15 16 17 18 19 20 21 22 23 24 25 26 27 28 29 30
377
FTUS41 KRLX 211309 AAA
TAFEKN
TAF AMD
KEKN 211309Z 2113/2212 00000KT 1/4SM FG VV002
     FM211400 00000KT 2SM BR BKN002
     FM211430 00000KT 4SM BR SCT008 BKN250
     FM211500 19006KT P6SM BKN040
     FM220000 17003KT P6SM BKN070=

USA.gov is the U.S. government's official web portal to all federal, state and local government web resources and services.